sensor_id;sensor_type;location;lat;lon;timestamp;P1;durP1;ratioP1;P2;durP2;ratioP2
22144;SDS011;11238;48.730;11.566;2023-09-30T00:00:01;26.40;;;11.10;;
22144;SDS011;11238;48.730;11.566;2023-09-30T00:02:36;25.08;;;11.30;;
22144;SDS011;11238;48.730;11.566;2023-09-30T00:05:02;25.10;;;10.80;;
22144;SDS011;11238;48.730;11.566;2023-09-30T00:07:29;23.20;;;10.60;;
22144;SDS011;11238;48.730;11.566;2023-09-30T00:09:54;28.33;;;10.50;;
22144;SDS011;11238;48.730;11.566;2023-09-30T00:12:20;24.33;;;10.52;;
22144;SDS011;11238;48.730;11.566;2023-09-30T00:14:46;23.90;;;10.60;;
22144;SDS011;11238;48.730;11.566;2023-09-30T00:17:14;22.60;;;10.00;;
22144;SDS011;11238;48.730;11.566;2023-09-30T00:19:40;24.45;;;10.30;;
22144;SDS011;11238;48.730;11.566;2023-09-30T00:22:07;23.05;;;10.23;;
22144;SDS011;11238;48.730;11.566;2023-09-30T00:24:33;26.77;;;11.13;;
22144;SDS011;11238;48.730;11.566;2023-09-30T00:26:59;24.73;;;10.18;;
22144;SDS011;11238;48.730;11.566;2023-09-30T00:29:25;20.33;;;9.82;;
22144;SDS011;11238;48.730;11.566;2023-09-30T00:31:52;20.38;;;9.52;;
22144;SDS011;11238;48.730;11.566;2023-09-30T00:34:18;23.27;;;9.60;;
22144;SDS011;11238;48.730;11.566;2023-09-30T00:36:45;23.70;;;9.80;;
22144;SDS011;11238;48.730;11.566;2023-09-30T00:39:11;25.33;;;9.68;;
22144;SDS011;11238;48.730;11.566;2023-09-30T00:41:40;21.50;;;9.82;;
22144;SDS011;11238;48.730;11.566;2023-09-30T00:44:06;21.40;;;9.93;;
22144;SDS011;11238;48.730;11.566;2023-09-30T00:46:36;19.33;;;8.82;;
22144;SDS011;11238;48.730;11.566;2023-09-30T00:49:05;24.05;;;10.02;;
22144;SDS011;11238;48.730;11.566;2023-09-30T00:51:31;20.95;;;9.00;;
22144;SDS011;11238;48.730;11.566;2023-09-30T00:54:02;20.30;;;8.88;;
22144;SDS011;11238;48.730;11.566;2023-09-30T00:56:29;20.33;;;9.43;;
22144;SDS011;11238;48.730;11.566;2023-09-30T00:58:56;21.55;;;8.75;;
22144;SDS011;11238;48.730;11.566;2023-09-30T01:01:26;20.75;;;8.45;;
22144;SDS011;11238;48.730;11.566;2023-09-30T01:03:52;20.23;;;9.00;;
22144;SDS011;11238;48.730;11.566;2023-09-30T01:06:18;20.65;;;8.50;;
22144;SDS011;11238;48.730;11.566;2023-09-30T01:08:45;23.90;;;9.80;;
22144;SDS011;11238;48.730;11.566;2023-09-30T01:11:11;20.98;;;8.85;;
22144;SDS011;11238;48.730;11.566;2023-09-30T01:13:39;21.13;;;8.73;;
22144;SDS011;11238;48.730;11.566;2023-09-30T01:18:31;20.80;;;8.32;;
22144;SDS011;11238;48.730;11.566;2023-09-30T01:21:00;19.98;;;8.40;;
22144;SDS011;11238;48.730;11.566;2023-09-30T01:23:31;20.67;;;8.48;;
22144;SDS011;11238;48.730;11.566;2023-09-30T01:26:11;22.45;;;8.35;;
22144;SDS011;11238;48.730;11.566;2023-09-30T01:28:38;22.02;;;8.02;;
22144;SDS011;11238;48.730;11.566;2023-09-30T01:31:04;16.08;;;7.78;;
22144;SDS011;11238;48.730;11.566;2023-09-30T01:33:30;17.73;;;7.93;;
22144;SDS011;11238;48.730;11.566;2023-09-30T01:35:57;18.23;;;7.65;;
22144;SDS011;11238;48.730;11.566;2023-09-30T01:38:26;21.63;;;8.32;;
22144;SDS011;11238;48.730;11.566;2023-09-30T01:40:52;18.42;;;8.18;;
22144;SDS011;11238;48.730;11.566;2023-09-30T01:43:20;18.92;;;7.88;;
22144;SDS011;11238;48.730;11.566;2023-09-30T01:45:46;16.20;;;7.55;;
22144;SDS011;11238;48.730;11.566;2023-09-30T01:48:12;21.33;;;8.57;;
22144;SDS011;11238;48.730;11.566;2023-09-30T01:50:38;19.05;;;7.75;;
22144;SDS011;11238;48.730;11.566;2023-09-30T01:53:04;18.65;;;7.72;;
22144;SDS011;11238;48.730;11.566;2023-09-30T01:55:37;17.73;;;7.97;;
22144;SDS011;11238;48.730;11.566;2023-09-30T01:58:03;18.48;;;8.18;;
22144;SDS011;11238;48.730;11.566;2023-09-30T02:00:30;17.63;;;7.90;;
22144;SDS011;11238;48.730;11.566;2023-09-30T02:02:56;18.65;;;8.07;;
22144;SDS011;11238;48.730;11.566;2023-09-30T02:05:22;17.85;;;7.53;;
22144;SDS011;11238;48.730;11.566;2023-09-30T02:07:49;20.63;;;7.50;;
22144;SDS011;11238;48.730;11.566;2023-09-30T02:10:16;18.27;;;7.75;;
22144;SDS011;11238;48.730;11.566;2023-09-30T02:12:44;16.70;;;7.05;;
22144;SDS011;11238;48.730;11.566;2023-09-30T02:15:11;20.15;;;8.13;;
22144;SDS011;11238;48.730;11.566;2023-09-30T02:17:38;19.63;;;7.72;;
22144;SDS011;11238;48.730;11.566;2023-09-30T02:20:04;20.25;;;7.43;;
22144;SDS011;11238;48.730;11.566;2023-09-30T02:22:32;17.50;;;8.05;;
22144;SDS011;11238;48.730;11.566;2023-09-30T02:24:59;15.82;;;7.45;;
22144;SDS011;11238;48.730;11.566;2023-09-30T02:27:25;17.13;;;6.95;;
22144;SDS011;11238;48.730;11.566;2023-09-30T02:29:51;16.85;;;7.57;;
22144;SDS011;11238;48.730;11.566;2023-09-30T02:32:17;19.60;;;7.80;;
22144;SDS011;11238;48.730;11.566;2023-09-30T02:34:43;18.90;;;7.65;;
22144;SDS011;11238;48.730;11.566;2023-09-30T02:37:10;19.17;;;7.88;;
22144;SDS011;11238;48.730;11.566;2023-09-30T02:39:36;16.52;;;7.50;;
22144;SDS011;11238;48.730;11.566;2023-09-30T02:42:02;17.33;;;7.00;;
22144;SDS011;11238;48.730;11.566;2023-09-30T02:44:28;19.83;;;7.30;;
22144;SDS011;11238;48.730;11.566;2023-09-30T02:46:55;17.92;;;7.55;;
22144;SDS011;11238;48.730;11.566;2023-09-30T02:49:21;15.82;;;7.07;;
22144;SDS011;11238;48.730;11.566;2023-09-30T02:51:47;16.90;;;7.68;;
22144;SDS011;11238;48.730;11.566;2023-09-30T02:54:14;24.15;;;8.38;;
22144;SDS011;11238;48.730;11.566;2023-09-30T02:56:41;18.48;;;7.95;;
22144;SDS011;11238;48.730;11.566;2023-09-30T02:59:07;20.63;;;7.93;;
22144;SDS011;11238;48.730;11.566;2023-09-30T03:01:34;17.15;;;7.68;;
22144;SDS011;11238;48.730;11.566;2023-09-30T03:03:59;16.55;;;7.13;;
22144;SDS011;11238;48.730;11.566;2023-09-30T03:06:25;19.98;;;8.18;;
22144;SDS011;11238;48.730;11.566;2023-09-30T03:08:51;18.98;;;8.23;;
22144;SDS011;11238;48.730;11.566;2023-09-30T03:11:17;16.30;;;7.43;;
22144;SDS011;11238;48.730;11.566;2023-09-30T03:13:45;19.65;;;8.05;;
22144;SDS011;11238;48.730;11.566;2023-09-30T03:16:11;19.48;;;8.00;;
22144;SDS011;11238;48.730;11.566;2023-09-30T03:18:37;18.67;;;8.15;;
22144;SDS011;11238;48.730;11.566;2023-09-30T03:21:12;18.88;;;7.93;;
22144;SDS011;11238;48.730;11.566;2023-09-30T03:23:39;17.25;;;7.93;;
22144;SDS011;11238;48.730;11.566;2023-09-30T03:26:05;20.98;;;7.63;;
22144;SDS011;11238;48.730;11.566;2023-09-30T03:28:35;20.67;;;8.10;;
22144;SDS011;11238;48.730;11.566;2023-09-30T03:31:03;18.08;;;7.93;;
22144;SDS011;11238;48.730;11.566;2023-09-30T03:33:30;17.98;;;7.82;;
22144;SDS011;11238;48.730;11.566;2023-09-30T03:36:00;17.05;;;7.40;;
22144;SDS011;11238;48.730;11.566;2023-09-30T03:38:26;18.15;;;8.43;;
22144;SDS011;11238;48.730;11.566;2023-09-30T03:40:52;15.10;;;7.72;;
22144;SDS011;11238;48.730;11.566;2023-09-30T03:43:20;18.55;;;7.18;;
22144;SDS011;11238;48.730;11.566;2023-09-30T03:45:46;17.85;;;8.02;;
22144;SDS011;11238;48.730;11.566;2023-09-30T03:48:12;17.98;;;7.85;;
22144;SDS011;11238;48.730;11.566;2023-09-30T03:50:38;18.27;;;7.85;;
22144;SDS011;11238;48.730;11.566;2023-09-30T03:53:05;20.17;;;7.88;;
22144;SDS011;11238;48.730;11.566;2023-09-30T03:55:34;17.15;;;7.80;;
22144;SDS011;11238;48.730;11.566;2023-09-30T03:58:05;18.98;;;7.78;;
22144;SDS011;11238;48.730;11.566;2023-09-30T04:00:32;17.95;;;7.90;;
22144;SDS011;11238;48.730;11.566;2023-09-30T04:02:57;18.95;;;7.75;;
22144;SDS011;11238;48.730;11.566;2023-09-30T04:05:26;18.52;;;7.32;;
22144;SDS011;11238;48.730;11.566;2023-09-30T04:07:58;17.42;;;7.57;;
22144;SDS011;11238;48.730;11.566;2023-09-30T04:10:23;18.35;;;7.43;;
22144;SDS011;11238;48.730;11.566;2023-09-30T04:12:50;19.17;;;7.85;;
22144;SDS011;11238;48.730;11.566;2023-09-30T04:15:17;17.38;;;8.07;;
22144;SDS011;11238;48.730;11.566;2023-09-30T04:17:44;18.92;;;7.95;;
22144;SDS011;11238;48.730;11.566;2023-09-30T04:20:10;19.83;;;8.73;;
22144;SDS011;11238;48.730;11.566;2023-09-30T04:22:41;17.33;;;7.68;;
22144;SDS011;11238;48.730;11.566;2023-09-30T04:25:14;19.67;;;8.13;;
22144;SDS011;11238;48.730;11.566;2023-09-30T04:27:42;18.08;;;7.95;;
22144;SDS011;11238;48.730;11.566;2023-09-30T04:30:09;18.90;;;7.75;;
22144;SDS011;11238;48.730;11.566;2023-09-30T04:32:36;17.25;;;7.18;;
22144;SDS011;11238;48.730;11.566;2023-09-30T04:35:04;15.73;;;6.80;;
22144;SDS011;11238;48.730;11.566;2023-09-30T04:37:30;16.77;;;7.35;;
22144;SDS011;11238;48.730;11.566;2023-09-30T04:39:56;17.75;;;7.32;;
22144;SDS011;11238;48.730;11.566;2023-09-30T04:42:23;16.92;;;8.15;;
22144;SDS011;11238;48.730;11.566;2023-09-30T04:44:51;15.73;;;7.28;;
22144;SDS011;11238;48.730;11.566;2023-09-30T04:47:25;18.08;;;7.68;;
22144;SDS011;11238;48.730;11.566;2023-09-30T04:49:51;18.83;;;7.82;;
22144;SDS011;11238;48.730;11.566;2023-09-30T04:52:17;18.30;;;7.75;;
22144;SDS011;11238;48.730;11.566;2023-09-30T04:54:43;17.35;;;8.10;;
22144;SDS011;11238;48.730;11.566;2023-09-30T04:57:10;18.20;;;7.65;;
22144;SDS011;11238;48.730;11.566;2023-09-30T04:59:36;19.95;;;8.10;;
22144;SDS011;11238;48.730;11.566;2023-09-30T05:02:02;19.25;;;7.78;;
22144;SDS011;11238;48.730;11.566;2023-09-30T05:04:28;17.15;;;7.45;;
22144;SDS011;11238;48.730;11.566;2023-09-30T05:06:55;16.27;;;7.28;;
22144;SDS011;11238;48.730;11.566;2023-09-30T05:09:20;15.93;;;7.03;;
22144;SDS011;11238;48.730;11.566;2023-09-30T05:11:47;15.98;;;6.85;;
22144;SDS011;11238;48.730;11.566;2023-09-30T05:14:12;15.75;;;6.38;;
22144;SDS011;11238;48.730;11.566;2023-09-30T05:16:38;14.35;;;6.28;;
22144;SDS011;11238;48.730;11.566;2023-09-30T05:19:04;18.88;;;6.35;;
22144;SDS011;11238;48.730;11.566;2023-09-30T05:21:30;15.00;;;6.38;;
22144;SDS011;11238;48.730;11.566;2023-09-30T05:23:56;18.67;;;6.82;;
22144;SDS011;11238;48.730;11.566;2023-09-30T05:26:22;14.88;;;6.68;;
22144;SDS011;11238;48.730;11.566;2023-09-30T05:28:48;18.33;;;7.57;;
22144;SDS011;11238;48.730;11.566;2023-09-30T05:31:14;16.38;;;6.97;;
22144;SDS011;11238;48.730;11.566;2023-09-30T05:33:39;16.25;;;7.10;;
22144;SDS011;11238;48.730;11.566;2023-09-30T05:36:05;18.75;;;6.60;;
22144;SDS011;11238;48.730;11.566;2023-09-30T05:38:31;14.98;;;6.68;;
22144;SDS011;11238;48.730;11.566;2023-09-30T05:40:58;15.77;;;6.13;;
22144;SDS011;11238;48.730;11.566;2023-09-30T05:43:26;16.20;;;6.47;;
22144;SDS011;11238;48.730;11.566;2023-09-30T05:45:52;12.88;;;5.65;;
22144;SDS011;11238;48.730;11.566;2023-09-30T05:48:22;18.83;;;6.20;;
22144;SDS011;11238;48.730;11.566;2023-09-30T05:50:48;11.80;;;5.53;;
22144;SDS011;11238;48.730;11.566;2023-09-30T05:53:14;15.98;;;6.03;;
22144;SDS011;11238;48.730;11.566;2023-09-30T05:55:41;14.73;;;5.85;;
22144;SDS011;11238;48.730;11.566;2023-09-30T05:58:07;12.48;;;5.72;;
22144;SDS011;11238;48.730;11.566;2023-09-30T06:00:39;14.93;;;6.13;;
22144;SDS011;11238;48.730;11.566;2023-09-30T06:03:06;16.50;;;6.63;;
22144;SDS011;11238;48.730;11.566;2023-09-30T06:05:32;16.65;;;6.65;;
22144;SDS011;11238;48.730;11.566;2023-09-30T06:08:01;14.77;;;6.65;;
22144;SDS011;11238;48.730;11.566;2023-09-30T06:10:28;11.93;;;5.97;;
22144;SDS011;11238;48.730;11.566;2023-09-30T06:12:55;16.92;;;6.35;;
22144;SDS011;11238;48.730;11.566;2023-09-30T06:15:22;16.60;;;6.80;;
22144;SDS011;11238;48.730;11.566;2023-09-30T06:17:51;13.13;;;5.50;;
22144;SDS011;11238;48.730;11.566;2023-09-30T06:20:20;14.40;;;5.25;;
22144;SDS011;11238;48.730;11.566;2023-09-30T06:22:48;8.52;;;3.92;;
22144;SDS011;11238;48.730;11.566;2023-09-30T06:25:14;12.80;;;5.35;;
22144;SDS011;11238;48.730;11.566;2023-09-30T06:27:47;9.88;;;4.85;;
22144;SDS011;11238;48.730;11.566;2023-09-30T06:30:17;11.57;;;5.15;;
22144;SDS011;11238;48.730;11.566;2023-09-30T06:32:44;9.25;;;3.97;;
22144;SDS011;11238;48.730;11.566;2023-09-30T06:35:10;10.88;;;4.07;;
22144;SDS011;11238;48.730;11.566;2023-09-30T06:37:37;11.20;;;4.03;;
22144;SDS011;11238;48.730;11.566;2023-09-30T06:40:07;9.38;;;3.63;;
22144;SDS011;11238;48.730;11.566;2023-09-30T06:42:36;9.63;;;2.40;;
22144;SDS011;11238;48.730;11.566;2023-09-30T06:45:03;6.65;;;2.22;;
22144;SDS011;11238;48.730;11.566;2023-09-30T06:47:32;7.45;;;2.75;;
22144;SDS011;11238;48.730;11.566;2023-09-30T06:50:02;3.78;;;1.67;;
22144;SDS011;11238;48.730;11.566;2023-09-30T06:52:37;4.57;;;2.05;;
22144;SDS011;11238;48.730;11.566;2023-09-30T06:55:04;4.20;;;2.55;;
22144;SDS011;11238;48.730;11.566;2023-09-30T06:57:33;6.35;;;2.30;;
22144;SDS011;11238;48.730;11.566;2023-09-30T07:00:01;4.07;;;2.22;;
22144;SDS011;11238;48.730;11.566;2023-09-30T07:02:33;4.22;;;2.05;;
22144;SDS011;11238;48.730;11.566;2023-09-30T07:04:59;4.95;;;1.83;;
22144;SDS011;11238;48.730;11.566;2023-09-30T07:07:25;3.28;;;1.60;;
22144;SDS011;11238;48.730;11.566;2023-09-30T07:09:50;4.95;;;1.75;;
22144;SDS011;11238;48.730;11.566;2023-09-30T07:12:17;2.50;;;1.35;;
22144;SDS011;11238;48.730;11.566;2023-09-30T07:14:42;3.08;;;1.52;;
22144;SDS011;11238;48.730;11.566;2023-09-30T07:17:08;2.72;;;1.48;;
22144;SDS011;11238;48.730;11.566;2023-09-30T07:19:33;4.03;;;1.55;;
22144;SDS011;11238;48.730;11.566;2023-09-30T07:22:00;2.92;;;1.50;;
22144;SDS011;11238;48.730;11.566;2023-09-30T07:24:25;2.63;;;1.40;;
22144;SDS011;11238;48.730;11.566;2023-09-30T07:26:54;2.78;;;1.30;;
22144;SDS011;11238;48.730;11.566;2023-09-30T07:29:21;3.70;;;1.58;;
22144;SDS011;11238;48.730;11.566;2023-09-30T07:31:46;2.63;;;1.45;;
22144;SDS011;11238;48.730;11.566;2023-09-30T07:34:12;4.50;;;1.73;;
22144;SDS011;11238;48.730;11.566;2023-09-30T07:36:38;3.95;;;1.52;;
22144;SDS011;11238;48.730;11.566;2023-09-30T07:39:04;2.60;;;1.48;;
22144;SDS011;11238;48.730;11.566;2023-09-30T07:41:34;2.05;;;1.13;;
22144;SDS011;11238;48.730;11.566;2023-09-30T07:44:02;2.08;;;1.20;;
22144;SDS011;11238;48.730;11.566;2023-09-30T07:46:28;1.90;;;1.20;;
22144;SDS011;11238;48.730;11.566;2023-09-30T07:48:53;2.42;;;1.20;;
22144;SDS011;11238;48.730;11.566;2023-09-30T07:51:20;2.50;;;0.88;;
22144;SDS011;11238;48.730;11.566;2023-09-30T07:53:46;2.70;;;0.80;;
22144;SDS011;11238;48.730;11.566;2023-09-30T07:56:13;1.33;;;0.77;;
22144;SDS011;11238;48.730;11.566;2023-09-30T07:59:01;0.95;;;0.50;;
22144;SDS011;11238;48.730;11.566;2023-09-30T08:01:27;1.10;;;0.57;;
22144;SDS011;11238;48.730;11.566;2023-09-30T08:03:55;0.77;;;0.50;;
22144;SDS011;11238;48.730;11.566;2023-09-30T08:06:21;0.68;;;0.50;;
22144;SDS011;11238;48.730;11.566;2023-09-30T08:08:48;0.73;;;0.50;;
22144;SDS011;11238;48.730;11.566;2023-09-30T08:11:14;0.40;;;0.40;;
22144;SDS011;11238;48.730;11.566;2023-09-30T08:13:41;1.42;;;0.60;;
22144;SDS011;11238;48.730;11.566;2023-09-30T08:16:07;0.90;;;0.60;;
22144;SDS011;11238;48.730;11.566;2023-09-30T08:18:32;0.60;;;0.50;;
22144;SDS011;11238;48.730;11.566;2023-09-30T08:21:01;0.73;;;0.60;;
22144;SDS011;11238;48.730;11.566;2023-09-30T08:23:27;0.77;;;0.63;;
22144;SDS011;11238;48.730;11.566;2023-09-30T08:25:53;1.08;;;0.50;;
22144;SDS011;11238;48.730;11.566;2023-09-30T08:28:23;0.50;;;0.50;;
22144;SDS011;11238;48.730;11.566;2023-09-30T08:30:49;0.60;;;0.60;;
22144;SDS011;11238;48.730;11.566;2023-09-30T08:33:16;0.68;;;0.57;;
22144;SDS011;11238;48.730;11.566;2023-09-30T08:35:42;0.60;;;0.60;;
22144;SDS011;11238;48.730;11.566;2023-09-30T08:38:08;0.77;;;0.60;;
22144;SDS011;11238;48.730;11.566;2023-09-30T08:40:33;0.52;;;0.52;;
22144;SDS011;11238;48.730;11.566;2023-09-30T08:42:59;1.25;;;0.80;;
22144;SDS011;11238;48.730;11.566;2023-09-30T08:45:27;1.20;;;0.60;;
22144;SDS011;11238;48.730;11.566;2023-09-30T08:47:54;0.68;;;0.65;;
22144;SDS011;11238;48.730;11.566;2023-09-30T08:50:20;0.85;;;0.60;;
22144;SDS011;11238;48.730;11.566;2023-09-30T08:52:47;2.67;;;0.70;;
22144;SDS011;11238;48.730;11.566;2023-09-30T08:55:13;0.75;;;0.60;;
22144;SDS011;11238;48.730;11.566;2023-09-30T08:57:40;0.80;;;0.75;;
22144;SDS011;11238;48.730;11.566;2023-09-30T09:00:07;0.77;;;0.70;;
22144;SDS011;11238;48.730;11.566;2023-09-30T09:02:39;1.50;;;0.80;;
22144;SDS011;11238;48.730;11.566;2023-09-30T09:05:05;2.97;;;0.90;;
22144;SDS011;11238;48.730;11.566;2023-09-30T09:07:32;1.13;;;0.80;;
22144;SDS011;11238;48.730;11.566;2023-09-30T09:10:03;1.85;;;0.80;;
22144;SDS011;11238;48.730;11.566;2023-09-30T09:14:59;2.83;;;0.90;;
22144;SDS011;11238;48.730;11.566;2023-09-30T09:17:39;3.47;;;0.75;;
22144;SDS011;11238;48.730;11.566;2023-09-30T09:20:07;1.17;;;0.90;;
22144;SDS011;11238;48.730;11.566;2023-09-30T09:22:42;1.33;;;0.90;;
22144;SDS011;11238;48.730;11.566;2023-09-30T09:25:09;1.27;;;0.80;;
22144;SDS011;11238;48.730;11.566;2023-09-30T09:27:35;1.52;;;0.90;;
22144;SDS011;11238;48.730;11.566;2023-09-30T09:30:18;3.40;;;1.00;;
22144;SDS011;11238;48.730;11.566;2023-09-30T09:33:00;2.45;;;0.90;;
22144;SDS011;11238;48.730;11.566;2023-09-30T09:35:34;2.33;;;1.00;;
22144;SDS011;11238;48.730;11.566;2023-09-30T09:38:23;2.80;;;1.23;;
22144;SDS011;11238;48.730;11.566;2023-09-30T09:40:49;1.85;;;1.02;;
22144;SDS011;11238;48.730;11.566;2023-09-30T09:43:15;1.88;;;1.08;;
22144;SDS011;11238;48.730;11.566;2023-09-30T09:45:41;2.20;;;1.17;;
22144;SDS011;11238;48.730;11.566;2023-09-30T09:48:09;4.53;;;1.35;;
22144;SDS011;11238;48.730;11.566;2023-09-30T09:50:35;6.93;;;1.65;;
22144;SDS011;11238;48.730;11.566;2023-09-30T09:53:01;5.97;;;1.55;;
22144;SDS011;11238;48.730;11.566;2023-09-30T09:55:29;3.22;;;1.55;;
22144;SDS011;11238;48.730;11.566;2023-09-30T09:57:54;3.63;;;1.67;;
22144;SDS011;11238;48.730;11.566;2023-09-30T10:00:26;1.88;;;1.23;;
22144;SDS011;11238;48.730;11.566;2023-09-30T10:02:52;3.60;;;1.65;;
22144;SDS011;11238;48.730;11.566;2023-09-30T10:05:19;3.15;;;1.80;;
22144;SDS011;11238;48.730;11.566;2023-09-30T10:07:57;3.42;;;1.88;;
22144;SDS011;11238;48.730;11.566;2023-09-30T10:10:28;3.53;;;2.13;;
22144;SDS011;11238;48.730;11.566;2023-09-30T10:12:56;2.97;;;1.98;;
22144;SDS011;11238;48.730;11.566;2023-09-30T10:18:04;4.90;;;2.42;;
22144;SDS011;11238;48.730;11.566;2023-09-30T10:20:38;4.32;;;2.20;;
22144;SDS011;11238;48.730;11.566;2023-09-30T10:25:51;4.35;;;2.13;;
22144;SDS011;11238;48.730;11.566;2023-09-30T10:28:32;5.38;;;2.47;;
22144;SDS011;11238;48.730;11.566;2023-09-30T10:36:30;4.38;;;2.20;;
22144;SDS011;11238;48.730;11.566;2023-09-30T10:39:01;4.05;;;2.17;;
22144;SDS011;11238;48.730;11.566;2023-09-30T10:46:48;5.80;;;2.78;;
22144;SDS011;11238;48.730;11.566;2023-09-30T10:49:15;10.52;;;2.83;;
22144;SDS011;11238;48.730;11.566;2023-09-30T10:52:22;5.50;;;2.67;;
22144;SDS011;11238;48.730;11.566;2023-09-30T10:54:48;7.38;;;2.47;;
22144;SDS011;11238;48.730;11.566;2023-09-30T10:57:16;9.00;;;3.03;;
22144;SDS011;11238;48.730;11.566;2023-09-30T11:00:12;6.55;;;2.63;;
22144;SDS011;11238;48.730;11.566;2023-09-30T11:02:48;5.45;;;2.65;;
22144;SDS011;11238;48.730;11.566;2023-09-30T11:05:16;5.95;;;3.03;;
22144;SDS011;11238;48.730;11.566;2023-09-30T11:07:43;6.35;;;3.38;;
22144;SDS011;11238;48.730;11.566;2023-09-30T11:10:15;6.38;;;3.22;;
22144;SDS011;11238;48.730;11.566;2023-09-30T11:12:57;5.60;;;3.22;;
22144;SDS011;11238;48.730;11.566;2023-09-30T11:15:24;7.22;;;3.33;;
22144;SDS011;11238;48.730;11.566;2023-09-30T11:17:51;8.18;;;3.10;;
22144;SDS011;11238;48.730;11.566;2023-09-30T11:20:17;5.68;;;3.13;;
22144;SDS011;11238;48.730;11.566;2023-09-30T11:22:44;6.50;;;3.67;;
22144;SDS011;11238;48.730;11.566;2023-09-30T11:25:18;7.90;;;3.85;;
22144;SDS011;11238;48.730;11.566;2023-09-30T11:30:11;9.95;;;3.95;;
22144;SDS011;11238;48.730;11.566;2023-09-30T11:32:38;6.35;;;3.28;;
22144;SDS011;11238;48.730;11.566;2023-09-30T11:35:25;9.90;;;3.53;;
22144;SDS011;11238;48.730;11.566;2023-09-30T11:37:50;7.28;;;2.95;;
22144;SDS011;11238;48.730;11.566;2023-09-30T11:40:17;11.60;;;3.60;;
22144;SDS011;11238;48.730;11.566;2023-09-30T11:45:37;6.88;;;3.60;;
22144;SDS011;11238;48.730;11.566;2023-09-30T11:48:15;8.30;;;4.07;;
22144;SDS011;11238;48.730;11.566;2023-09-30T11:50:48;7.13;;;3.40;;
22144;SDS011;11238;48.730;11.566;2023-09-30T11:53:16;8.27;;;3.28;;
22144;SDS011;11238;48.730;11.566;2023-09-30T11:55:43;8.85;;;3.70;;
22144;SDS011;11238;48.730;11.566;2023-09-30T11:58:09;9.65;;;3.53;;
22144;SDS011;11238;48.730;11.566;2023-09-30T12:00:40;6.97;;;3.30;;
22144;SDS011;11238;48.730;11.566;2023-09-30T12:03:07;11.07;;;4.07;;
22144;SDS011;11238;48.730;11.566;2023-09-30T12:05:33;8.35;;;4.10;;
22144;SDS011;11238;48.730;11.566;2023-09-30T12:07:59;5.65;;;3.20;;
22144;SDS011;11238;48.730;11.566;2023-09-30T12:10:25;8.38;;;4.18;;
22144;SDS011;11238;48.730;11.566;2023-09-30T12:12:51;8.77;;;3.40;;
22144;SDS011;11238;48.730;11.566;2023-09-30T12:15:17;10.40;;;4.05;;
22144;SDS011;11238;48.730;11.566;2023-09-30T12:17:45;7.28;;;3.60;;
22144;SDS011;11238;48.730;11.566;2023-09-30T12:20:11;7.38;;;3.55;;
22144;SDS011;11238;48.730;11.566;2023-09-30T12:22:39;8.27;;;3.75;;
22144;SDS011;11238;48.730;11.566;2023-09-30T12:25:05;7.93;;;4.10;;
22144;SDS011;11238;48.730;11.566;2023-09-30T12:27:34;8.98;;;4.85;;
22144;SDS011;11238;48.730;11.566;2023-09-30T12:29:59;8.95;;;4.75;;
22144;SDS011;11238;48.730;11.566;2023-09-30T12:32:25;10.75;;;5.22;;
22144;SDS011;11238;48.730;11.566;2023-09-30T12:34:52;10.10;;;4.95;;
22144;SDS011;11238;48.730;11.566;2023-09-30T12:37:18;9.05;;;4.28;;
22144;SDS011;11238;48.730;11.566;2023-09-30T12:39:44;10.90;;;4.43;;
22144;SDS011;11238;48.730;11.566;2023-09-30T12:42:12;10.23;;;4.57;;
22144;SDS011;11238;48.730;11.566;2023-09-30T12:44:39;9.40;;;4.30;;
22144;SDS011;11238;48.730;11.566;2023-09-30T12:47:05;11.02;;;5.00;;
22144;SDS011;11238;48.730;11.566;2023-09-30T12:49:31;10.95;;;4.75;;
22144;SDS011;11238;48.730;11.566;2023-09-30T12:51:58;11.82;;;5.50;;
22144;SDS011;11238;48.730;11.566;2023-09-30T12:54:26;9.77;;;5.07;;
22144;SDS011;11238;48.730;11.566;2023-09-30T12:56:52;12.38;;;5.60;;
22144;SDS011;11238;48.730;11.566;2023-09-30T12:59:18;13.88;;;5.75;;
22144;SDS011;11238;48.730;11.566;2023-09-30T13:01:45;10.90;;;5.53;;
22144;SDS011;11238;48.730;11.566;2023-09-30T13:04:12;13.90;;;5.70;;
22144;SDS011;11238;48.730;11.566;2023-09-30T13:06:37;12.82;;;6.00;;
22144;SDS011;11238;48.730;11.566;2023-09-30T13:09:03;10.40;;;5.15;;
22144;SDS011;11238;48.730;11.566;2023-09-30T13:11:34;11.23;;;5.57;;
22144;SDS011;11238;48.730;11.566;2023-09-30T13:14:00;12.18;;;5.90;;
22144;SDS011;11238;48.730;11.566;2023-09-30T13:16:26;14.55;;;5.82;;
22144;SDS011;11238;48.730;11.566;2023-09-30T13:18:52;16.15;;;6.70;;
22144;SDS011;11238;48.730;11.566;2023-09-30T13:21:18;13.98;;;6.35;;
22144;SDS011;11238;48.730;11.566;2023-09-30T13:23:44;13.90;;;6.03;;
22144;SDS011;11238;48.730;11.566;2023-09-30T13:26:10;13.73;;;6.70;;
22144;SDS011;11238;48.730;11.566;2023-09-30T13:28:36;12.70;;;6.10;;
22144;SDS011;11238;48.730;11.566;2023-09-30T13:31:02;12.23;;;6.28;;
22144;SDS011;11238;48.730;11.566;2023-09-30T13:33:28;15.00;;;7.20;;
22144;SDS011;11238;48.730;11.566;2023-09-30T13:35:54;12.63;;;6.53;;
22144;SDS011;11238;48.730;11.566;2023-09-30T13:38:20;14.60;;;7.05;;
22144;SDS011;11238;48.730;11.566;2023-09-30T13:40:47;16.02;;;7.05;;
22144;SDS011;11238;48.730;11.566;2023-09-30T13:43:13;15.40;;;6.18;;
22144;SDS011;11238;48.730;11.566;2023-09-30T13:45:39;11.20;;;5.40;;
22144;SDS011;11238;48.730;11.566;2023-09-30T13:48:07;10.98;;;4.85;;
22144;SDS011;11238;48.730;11.566;2023-09-30T13:50:33;15.45;;;5.57;;
22144;SDS011;11238;48.730;11.566;2023-09-30T13:52:59;13.30;;;5.10;;
22144;SDS011;11238;48.730;11.566;2023-09-30T13:55:26;11.07;;;5.32;;
22144;SDS011;11238;48.730;11.566;2023-09-30T13:57:52;12.20;;;5.97;;
22144;SDS011;11238;48.730;11.566;2023-09-30T14:00:18;12.95;;;6.28;;
22144;SDS011;11238;48.730;11.566;2023-09-30T14:02:43;15.30;;;6.10;;
22144;SDS011;11238;48.730;11.566;2023-09-30T14:05:09;14.82;;;6.13;;
22144;SDS011;11238;48.730;11.566;2023-09-30T14:07:37;13.90;;;6.80;;
22144;SDS011;11238;48.730;11.566;2023-09-30T14:10:05;13.60;;;6.53;;
22144;SDS011;11238;48.730;11.566;2023-09-30T14:12:31;14.80;;;6.47;;
22144;SDS011;11238;48.730;11.566;2023-09-30T14:14:57;14.60;;;6.78;;
22144;SDS011;11238;48.730;11.566;2023-09-30T14:17:23;13.05;;;6.50;;
22144;SDS011;11238;48.730;11.566;2023-09-30T14:19:50;14.55;;;6.93;;
22144;SDS011;11238;48.730;11.566;2023-09-30T14:22:16;14.15;;;7.25;;
22144;SDS011;11238;48.730;11.566;2023-09-30T14:24:43;15.25;;;7.18;;
22144;SDS011;11238;48.730;11.566;2023-09-30T14:27:08;14.95;;;6.88;;
22144;SDS011;11238;48.730;11.566;2023-09-30T14:29:34;15.40;;;6.70;;
22144;SDS011;11238;48.730;11.566;2023-09-30T14:32:00;15.95;;;6.75;;
22144;SDS011;11238;48.730;11.566;2023-09-30T14:34:27;14.48;;;7.13;;
22144;SDS011;11238;48.730;11.566;2023-09-30T14:36:53;14.25;;;7.20;;
22144;SDS011;11238;48.730;11.566;2023-09-30T14:39:19;12.63;;;6.32;;
22144;SDS011;11238;48.730;11.566;2023-09-30T14:41:45;13.25;;;6.15;;
22144;SDS011;11238;48.730;11.566;2023-09-30T14:44:11;13.02;;;6.22;;
22144;SDS011;11238;48.730;11.566;2023-09-30T14:46:40;14.43;;;6.55;;
22144;SDS011;11238;48.730;11.566;2023-09-30T14:49:06;14.52;;;6.60;;
22144;SDS011;11238;48.730;11.566;2023-09-30T14:51:35;12.50;;;6.25;;
22144;SDS011;11238;48.730;11.566;2023-09-30T14:54:03;14.95;;;6.43;;